Latest Weather Observations for Richmond

IDN60901

Issued at 6:02 pm EST Saturday 5 September 2026 (issued every 10 minutes, with the page automatically refreshed every 10 minutes)

About weather observations | Map of Sydney area stations | Latest observations for Sydney area | Other Formats
Station Details ID: 067105 Name: RICHMOND RAAF Lat: -33.60 Lon: 150.78 Height: 19.0 m
Data from the previous 72 hours. | See also: Recent months at Richmond
Date/Time
EST
Temp
°C
App
Temp
°C
Dew
Point
°C
Rel
Hum
%
Delta-T
°C
Wind Press
QNH
hPa
Press
MSL
hPa
Rain since
9am
mm
Dir  Spd
km/h
Gust
km/h
Spd
kts
Gust
kts
05/06:00pm 22.0 18.9 12.3 54 5.5 N 20 30 11 16 1009.6 1009.6 0.0
05/05:30pm 22.3 20.2 12.3 53 5.7 WNW 15 24 8 13 1010.9 1010.9 0.0
05/05:00pm 22.2 17.8 13.0 56 5.3 WNW 28 41 15 22 1010.7 1010.7 0.0
05/04:52pm 22.1 17.0 13.2 57 5.1 WNW 32 41 17 22 1010.6 1010.6 0.0
05/04:33pm 23.0 17.6 12.3 51 6.1 WNW 32 54 17 29 1009.8 1009.8 0.0
05/04:30pm 23.1 17.8 12.4 51 6.1 WNW 32 46 17 25 1009.6 1009.6 0.0
05/04:28pm 23.1 17.8 12.4 51 6.1 WNW 32 48 17 26 1008.9 1008.9 0.0
05/04:09pm 24.6 15.1 11.2 43 7.5 WSW 52 80 28 43 1009.3 1009.3 0.0
05/04:00pm 26.8 17.5 9.2 33 9.7 W 48 80 26 43 1008.4 1008.4 0.0
05/03:59pm 28.4 19.4 8.7 29 10.8 W 46 80 25 43 1008.2 1008.2 0.0
05/03:58pm 30.3 21.5 8.1 25 12.2 WNW 44 65 24 35 1007.9 1007.9 0.0
05/03:30pm 31.6 24.3 8.6 24 12.8 WNW 37 56 20 30 1005.6 1005.6 0.0
05/03:20pm 31.5 23.6 7.9 23 13.0 WNW 39 57 21 31 1005.6 1005.6 0.0
05/03:18pm 32.2 24.6 9.1 24 13.0 WNW 39 52 21 28 1005.5 1005.5 0.0
05/03:14pm 31.9 24.5 8.2 23 13.1 WNW 37 52 20 28 1005.5 1005.5 0.0
05/03:00pm 31.9 25.4 8.2 23 13.2 NW 32 50 17 27 1005.6 1005.6 0.0
05/02:33pm 32.8 26.3 8.3 22 13.7 NNW 32 50 17 27 1005.6 1005.6 0.0
05/02:30pm 32.5 26.1 9.3 24 13.1 NNW 33 50 18 27 1005.8 1005.8 0.0
05/02:26pm 32.7 25.8 8.9 23 13.4 NNW 35 48 19 26 1005.8 1005.8 0.0
05/02:00pm 32.5 24.5 7.4 21 13.8 NW 39 61 21 33 1005.8 1005.8 0.0
05/01:35pm 32.6 26.5 8.1 22 13.6 NNW 30 54 16 29 1006.3 1006.3 0.0
05/01:30pm 32.6 27.0 10.0 25 12.9 NNW 30 46 16 25 1006.5 1006.5 0.0
05/01:00pm 31.0 25.5 9.3 26 12.2 N 28 43 15 23 1007.4 1007.4 0.0
05/12:41pm 30.8 24.1 9.6 27 12.0 NNW 35 46 19 25 1008.0 1008.0 0.0
05/12:30pm 30.5 24.0 8.8 26 12.1 N 33 52 18 28 1008.5 1008.5 0.0
05/12:16pm 29.8 23.5 8.8 27 11.6 N 32 52 17 28 1009.1 1009.1 0.0
05/12:00pm 29.1 24.0 9.3 29 11.0 N 26 37 14 20 1009.7 1009.7 0.0
05/11:41am 28.5 24.0 8.7 29 10.9 N 22 39 12 21 1010.4 1010.4 0.0
05/11:30am 28.4 22.9 9.2 30 10.6 N 28 46 15 25 1010.8 1010.8 0.0
05/11:00am 27.8 23.8 9.1 31 10.3 N 20 32 11 17 1011.6 1011.6 0.0
05/10:30am 26.3 21.2 7.8 31 9.9 N 24 33 13 18 1012.6 1012.6 0.0
05/10:00am 25.4 20.9 8.4 34 9.1 N 22 30 12 16 1013.4 1013.4 0.0
05/09:30am 23.7 19.8 9.3 40 7.8 N 20 24 11 13 1014.4 1014.4 0.0
05/09:00am 20.9 18.6 10.4 51 5.7 NNE 13 17 7 9 1015.2 1015.2 0.0
05/08:30am 17.3 15.8 10.7 65 3.5 NNE 9 15 5 8 1015.4 1015.4 0.0
05/08:00am 14.6 14.7 10.2 75 2.3 CALM 0 0 0 0 1016.4 1016.4 0.0
05/07:30am 13.4 13.3 10.9 85 1.3 W 2 7 1 4 1016.3 1016.3 0.0
05/07:00am 10.8 9.4 9.4 91 0.7 SSW 7 9 4 5 1016.2 1016.2 0.0
05/06:30am 9.3 8.9 8.2 93 0.5 CALM 0 0 0 0 1016.0 1016.0 0.0
05/06:00am 9.3 8.9 8.1 92 0.6 CALM 0 0 0 0 1015.9 1015.9 0.0
05/05:30am 9.4 8.5 7.8 90 0.8 NNW 2 7 1 4 1016.1 1016.1 0.0
05/05:00am 9.8 9.4 8.4 91 0.7 CALM 0 0 0 0 1015.9 1015.9 0.0
05/04:30am 9.8 9.1 8.4 91 0.7 SW 2 7 1 4 1016.3 1016.3 0.0
05/04:00am 10.0 9.2 8.1 88 0.9 NE 2 7 1 4 1016.3 1016.3 0.0
05/03:30am 10.2 9.8 8.1 87 1.0 CALM 0 0 0 0 1016.1 1016.1 0.0
05/03:00am 10.5 9.7 8.1 85 1.2 E 2 7 1 4 1016.1 1016.1 0.0
05/02:30am 11.6 10.3 9.2 85 1.2 ENE 6 6 3 3 1016.8 1016.8 0.0
05/02:00am 11.7 10.4 9.1 84 1.3 ENE 6 9 3 5 1017.3 1017.3 0.0
05/01:30am 12.2 10.8 9.6 84 1.3 NE 7 11 4 6 1017.7 1017.7 0.0
05/01:00am 11.3 11.1 9.0 86 1.1 CALM 0 0 0 0 1018.2 1018.2 0.0
05/12:30am 11.2 10.4 9.5 89 0.9 ENE 4 9 2 5 1018.5 1018.5 0.0
05/12:00am 11.6 11.5 9.5 87 1.1 CALM 0 2 0 1 1018.5 1018.5 0.0
 
Date/Time
EST
Temp
°C
App
Temp
°C
Dew
Point
°C
Rel
Hum
%
Delta-T
°C
Wind Press
QNH
hPa
Press
MSL
hPa
Rain since
9am
mm
Dir  Spd
km/h
Gust
km/h
Spd
kts
Gust
kts
04/11:30pm 12.5 11.2 9.1 80 1.7 N 6 9 3 5 1018.6 1018.6 0.0
04/11:00pm 12.2 10.9 9.2 82 1.5 N 6 7 3 4 1018.9 1018.9 0.0
04/10:30pm 13.1 12.9 9.2 77 2.0 CALM 0 0 0 0 1019.2 1019.2 0.0
04/10:00pm 13.9 13.7 9.1 73 2.4 CALM 0 0 0 0 1019.3 1019.3 0.0
04/09:30pm 14.5 13.7 9.5 72 2.6 S 4 9 2 5 1019.4 1019.4 0.0
04/09:00pm 15.2 14.7 9.3 68 3.0 NW 2 7 1 4 1019.2 1019.2 0.0
04/08:30pm 16.3 15.4 9.3 63 3.6 N 4 7 2 4 1018.9 1018.9 0.0
04/08:00pm 16.1 14.6 9.1 63 3.6 N 7 9 4 5 1018.5 1018.5 0.0
04/07:30pm 15.7 15.3 8.4 62 3.7 CALM 0 0 0 0 1018.1 1018.1 0.0
04/07:00pm 16.3 14.6 8.3 59 4.1 ENE 7 11 4 6 1017.7 1017.7 0.0
04/06:30pm 17.6 16.8 8.2 54 4.8 SW 2 7 1 4 1017.2 1017.2 0.0
04/06:00pm 18.4 17.1 7.5 49 5.5 SW 4 7 2 4 1017.0 1017.0 0.0
04/05:30pm 22.3 21.8 7.7 39 7.6 CALM 0 7 0 4 1016.6 1016.6 0.0
04/05:00pm 24.2 23.8 8.2 36 8.5 CALM 0 0 0 0 1016.4 1016.4 0.0
04/04:30pm 23.8 21.6 6.1 32 9.0 NNE 7 11 4 6 1016.1 1016.1 0.0
04/04:00pm 23.9 21.3 6.2 32 9.1 ENE 9 15 5 8 1016.1 1016.1 0.0
04/03:30pm 23.9 21.0 6.7 33 8.9 E 11 19 6 10 1016.3 1016.3 0.0
04/03:00pm 23.8 20.2 6.6 33 8.9 E 15 20 8 11 1016.5 1016.5 0.0
04/02:30pm 23.5 20.8 7.2 35 8.5 ENE 11 17 6 9 1016.8 1016.8 0.0
04/02:00pm 23.1 20.3 6.8 35 8.4 E 11 19 6 10 1017.4 1017.4 0.0
04/01:30pm 22.6 19.1 5.5 33 8.6 NNE 13 19 7 10 1018.0 1018.0 0.0
04/01:00pm 22.4 19.9 6.6 36 8.1 N 9 13 5 7 1018.7 1018.7 0.0
04/12:30pm 22.6 20.6 6.4 35 8.3 N 6 13 3 7 1019.2 1019.2 0.0
04/12:00pm 21.5 19.3 6.2 37 7.7 SE 7 13 4 7 1019.8 1019.8 0.0
04/11:30am 21.0 18.0 5.8 37 7.6 SW 11 17 6 9 1020.6 1020.6 0.0
04/11:00am 20.8 17.7 5.6 37 7.5 SSE 11 19 6 10 1021.2 1021.2 0.0
04/10:30am 19.9 16.5 5.9 40 6.9 SW 13 20 7 11 1021.4 1021.4 0.0
04/10:00am 19.6 18.8 8.0 47 6.0 WNW 2 7 1 4 1021.7 1021.7 0.0
04/09:30am 18.1 15.9 7.8 51 5.2 NW 9 13 5 7 1022.1 1022.1 0.0
04/09:00am 16.3 14.7 7.8 57 4.3 N 6 9 3 5 1022.5 1022.5 0.0
04/08:30am 15.1 14.2 7.9 62 3.6 NNE 2 6 1 3 1022.6 1022.6 0.0
04/08:00am 12.9 11.0 7.6 70 2.6 NE 7 11 4 6 1022.5 1022.5 0.0
04/07:30am 10.6 8.7 7.7 82 1.4 N 7 9 4 5 1022.4 1022.4 0.0
04/07:00am 9.9 8.0 7.5 85 1.1 WNW 7 11 4 6 1022.0 1022.0 0.0
04/06:30am 8.4 6.2 6.2 86 1.0 WSW 7 9 4 5 1021.7 1021.7 0.0
04/06:00am 6.8 4.0 5.3 90 0.7 WNW 9 11 5 6 1021.5 1021.5 0.0
04/05:30am 7.0 5.3 5.9 93 0.5 WSW 4 7 2 4 1021.4 1021.4 0.0
04/05:00am 6.9 5.8 5.1 88 0.8 CALM 0 6 0 3 1021.0 1021.0 0.0
04/04:30am 7.8 6.8 5.8 87 0.9 CALM 0 0 0 0 1020.7 1020.7 0.0
04/04:00am 8.4 6.8 6.5 88 0.9 NNE 4 7 2 4 1020.4 1020.4 0.0
04/03:30am 8.4 7.1 5.9 84 1.1 NNW 2 7 1 4 1020.1 1020.1 0.0
04/03:00am 8.8 6.7 5.7 81 1.4 WNW 6 9 3 5 1019.9 1019.9 0.0
04/02:30am 9.7 8.0 6.1 78 1.7 NNW 4 11 2 6 1020.2 1020.2 0.0
04/02:00am 11.3 10.5 6.4 72 2.3 CALM 0 6 0 3 1020.3 1020.3 0.0
04/01:30am 12.5 11.6 6.1 65 3.0 CALM 0 0 0 0 1020.4 1020.4 0.0
04/01:00am 14.7 11.8 6.5 58 4.0 SW 11 13 6 7 1020.3 1020.3 0.0
04/12:30am 13.4 10.9 6.5 63 3.3 WSW 9 13 5 7 1020.4 1020.4 0.0
04/12:00am 14.6 11.7 6.7 59 3.8 WNW 11 19 6 10 1020.5 1020.5 0.0
 
Date/Time
EST
Temp
°C
App
Temp
°C
Dew
Point
°C
Rel
Hum
%
Delta-T
°C
Wind Press
QNH
hPa
Press
MSL
hPa
Rain since
9am
mm
Dir  Spd
km/h
Gust
km/h
Spd
kts
Gust
kts
03/11:30pm 15.0 12.9 6.8 58 4.0 WSW 7 13 4 7 1020.4 1020.4 0.0
03/11:00pm 14.4 12.9 7.0 61 3.6 WNW 4 6 2 3 1020.2 1020.2 0.0
03/10:30pm 16.0 13.7 7.5 57 4.2 W 9 17 5 9 1019.7 1019.7 0.0
03/10:00pm 16.2 12.0 8.4 60 4.0 W 20 24 11 13 1019.1 1019.1 0.0
03/09:30pm 16.3 13.3 7.8 57 4.3 NW 13 17 7 9 1018.9 1018.9 0.0
03/09:00pm 17.0 13.6 7.6 54 4.7 WNW 15 20 8 11 1018.4 1018.4 0.0
03/08:30pm 18.2 13.9 7.9 51 5.3 WNW 20 28 11 15 1017.9 1017.9 0.0
03/08:00pm 19.0 13.1 7.4 47 5.9 WNW 28 33 15 18 1017.1 1017.1 0.0
03/07:30pm 19.3 13.8 7.7 47 5.9 WNW 26 35 14 19 1016.5 1016.5 0.0
03/07:00pm 19.8 14.0 7.9 46 6.1 WNW 28 37 15 20 1015.8 1015.8 0.0
03/06:30pm 19.8 15.6 7.5 45 6.3 NW 19 28 10 15 1015.5 1015.5 0.0
03/06:00pm 20.6 16.2 7.6 43 6.7 NW 20 26 11 14 1014.6 1014.6 0.0
03/05:30pm 21.4 17.6 7.6 41 7.1 NW 17 24 9 13 1014.1 1014.1 0.0
03/05:00pm 22.8 18.7 7.8 38 7.9 NW 19 26 10 14 1013.4 1013.4 0.0
03/04:30pm 24.2 20.5 7.8 35 8.7 NW 17 24 9 13 1012.8 1012.8 0.0
03/04:00pm 24.8 19.9 7.0 32 9.3 NW 22 30 12 16 1012.3 1012.3 0.0
03/03:30pm 25.1 20.7 7.3 32 9.4 NW 20 28 11 15 1012.2 1012.2 0.0
03/03:00pm 25.6 20.8 7.2 31 9.7 W 22 33 12 18 1012.1 1012.1 0.0
03/02:30pm 26.1 20.0 6.7 29 10.2 W 28 41 15 22 1012.0 1012.0 0.0
03/02:00pm 26.0 19.1 6.6 29 10.1 W 32 39 17 21 1011.6 1011.6 0.0
03/01:30pm 26.1 19.4 7.2 30 10.0 WNW 32 43 17 23 1011.2 1011.2 0.0
03/01:00pm 26.0 20.1 7.6 31 9.8 WNW 28 39 15 21 1011.2 1011.2 0.0
03/12:41pm 26.1 19.6 8.1 32 9.7 WNW 32 43 17 23 1011.2 1011.2 0.0
03/12:31pm 26.6 21.0 8.6 32 9.8 WNW 28 46 15 25 1011.0 1011.0 0.0
03/12:30pm 26.3 20.6 8.3 32 9.7 W 28 37 15 20 1011.1 1011.1 0.0
03/12:00pm 26.6 21.3 8.6 32 9.8 WNW 26 43 14 23 1011.1 1011.1 0.0
03/11:30am 26.7 21.7 8.2 31 10.0 W 24 39 13 21 1011.0 1011.0 0.0
03/11:00am 26.9 20.9 8.8 32 9.9 W 30 44 16 24 1010.7 1010.7 0.0
03/10:30am 26.4 20.2 7.9 31 9.9 W 30 41 16 22 1010.7 1010.7 0.0
03/10:13am 26.4 22.3 8.8 33 9.6 WNW 20 32 11 17 1010.7 1010.7 0.0
03/10:08am 26.2 21.2 8.2 32 9.7 W 24 43 13 23 1010.7 1010.7 0.0
03/10:00am 26.0 22.0 8.9 34 9.3 WNW 20 52 11 28 1010.4 1010.4 0.0
03/09:58am 26.0 22.2 7.6 31 9.8 WNW 17 52 9 28 1010.3 1010.3 0.0
03/09:46am 25.6 22.6 9.4 36 8.9 WSW 15 39 8 21 1010.5 1010.5 0.0
03/09:36am 25.7 21.4 9.5 36 8.9 WNW 22 43 12 23 1010.2 1010.2 0.0
03/09:30am 25.6 22.4 9.8 37 8.7 NNW 17 28 9 15 1010.3 1010.3 0.0
03/09:00am 24.7 22.5 10.9 42 7.7 N 13 20 7 11 1010.0 1010.0 0.0
03/08:30am 22.8 19.9 10.9 47 6.6 NNE 17 24 9 13 1009.8 1009.8 0.0
03/08:00am 21.0 19.9 11.9 56 5.1 NE 9 13 5 7 1009.8 1009.8 0.0
03/07:30am 17.9 18.3 12.4 70 3.1 WSW 2 7 1 4 1009.8 1009.8 0.0
03/07:00am 16.7 16.0 11.4 71 2.9 N 6 9 3 5 1009.5 1009.5 0.0
03/06:30am 14.6 13.7 11.2 80 1.8 W 7 11 4 6 1009.4 1009.4 0.0
03/06:00am 16.0 14.0 11.6 75 2.4 NE 13 19 7 10 1009.3 1009.3 0.0
03/05:30am 16.3 15.6 11.5 73 2.6 NNE 6 7 3 4 1010.5 1010.5 0.0
03/05:00am 16.7 14.7 11.6 72 2.8 NNE 13 15 7 8 1010.7 1010.7 0.0
03/04:30am 16.8 15.1 11.3 70 3.0 SW 11 20 6 11 1011.8 1011.8 0.0
03/04:00am 19.4 18.0 9.6 53 5.2 ENE 7 15 4 8 1010.5 1010.5 0.0
03/03:30am 19.3 16.4 9.8 54 5.1 NE 15 17 8 9 1010.2 1010.2 0.0
03/03:00am 19.6 17.2 10.0 54 5.1 NNE 13 17 7 9 1010.7 1010.7 0.0
03/02:30am 19.8 18.1 10.0 53 5.3 NNE 9 13 5 7 1011.4 1011.4 0.0
03/02:00am 19.5 17.1 10.0 54 5.1 N 13 17 7 9 1012.0 1012.0 0.0
03/01:30am 20.3 17.8 9.8 51 5.6 N 13 19 7 10 1012.3 1012.3 0.0
03/01:00am 17.5 16.0 10.6 64 3.7 N 9 11 5 6 1012.4 1012.4 0.0
03/12:30am 15.3 14.3 10.9 75 2.3 N 7 11 4 6 1012.8 1012.8 0.0
03/12:00am 13.5 13.7 10.5 82 1.6 CALM 0 0 0 0 1013.3 1013.3 0.0
 
Date/Time
EST
Temp
°C
App
Temp
°C
Dew
Point
°C
Rel
Hum
%
Delta-T
°C
Wind Press
QNH
hPa
Press
MSL
hPa
Rain since
9am
mm
Dir  Spd
km/h
Gust
km/h
Spd
kts
Gust
kts
02/11:30pm 13.4 13.0 9.8 79 1.8 SSW 2 7 1 4 1013.6 1013.6 0.0
02/11:00pm 14.2 14.2 9.8 75 2.3 CALM 0 0 0 0 1013.7 1013.7 0.0
02/10:30pm 15.2 15.1 9.3 68 3.0 CALM 0 0 0 0 1014.0 1014.0 0.0
02/10:00pm 15.4 15.3 9.5 68 3.1 CALM 0 0 0 0 1014.2 1014.2 0.0
02/09:30pm 16.2 15.7 9.2 63 3.6 NW 2 6 1 3 1014.4 1014.4 0.0
02/09:00pm 17.8 16.6 9.4 58 4.4 NW 6 7 3 4 1014.5 1014.5 0.0
02/08:30pm 17.5 17.3 9.2 58 4.3 CALM 0 0 0 0 1014.3 1014.3 0.0
02/08:00pm 18.9 18.8 9.4 54 5.0 CALM 0 6 0 3 1014.2 1014.2 0.0
02/07:30pm 20.8 19.2 8.8 46 6.3 NW 7 11 4 6 1014.2 1014.2 0.0
02/07:00pm 21.4 19.0 8.7 44 6.7 NW 11 13 6 7 1014.1 1014.1 0.0
02/06:30pm 21.9 19.9 8.8 43 7.0 W 9 13 5 7 1013.7 1013.7 0.0

Latest Capital City Observations: Canberra | Sydney | Melbourne | Brisbane | Adelaide | Perth | Hobart | Darwin

Other formats

Comma delimited format used in spreadsheet applications
http://www.bom.gov.au/fwo/IDN60901/IDN60901.95753.axf

JavaScript Object Notation format (JSON) in row-major order
http://www.bom.gov.au/fwo/IDN60901/IDN60901.95753.json

Data quality

Most of these data are generated automatically and are frequently updated. Quality checks on data are not normally performed. It is possible for incorrect values to appear. Refer to information at About Latest Weather Observations and please check the disclaimer before using these data.